createdAt,value
2024-01-08T00:02:59.655Z,96010.78
2024-01-08T00:08:02.699Z,96019.41
2024-01-08T00:13:07.523Z,96013.00
2024-01-08T00:18:10.708Z,96003.84
2024-01-08T00:23:13.694Z,96006.31
2024-01-08T00:28:17.992Z,96003.84
2024-01-08T00:33:21.056Z,95996.88
2024-01-08T00:38:24.200Z,95998.69
2024-01-08T00:43:28.486Z,96002.72
2024-01-08T00:48:31.490Z,96007.59
2024-01-08T00:53:34.450Z,96010.03
2024-01-08T00:58:43.183Z,95998.72
2024-01-08T01:03:46.239Z,95994.16
2024-01-08T01:08:49.370Z,96002.25
2024-01-08T01:13:53.629Z,96014.09
2024-01-08T01:18:56.749Z,96012.47
2024-01-08T01:23:59.777Z,96017.22
2024-01-08T01:29:04.041Z,96016.44
2024-01-08T01:34:08.440Z,96017.81
2024-01-08T01:39:11.705Z,96021.88
2024-01-08T01:44:16.065Z,96034.00
2024-01-08T01:49:20.167Z,96033.22
2024-01-08T01:54:24.606Z,96030.78
2024-01-08T01:59:29.895Z,96033.41
2024-01-08T02:04:33.363Z,96029.09
2024-01-08T02:09:36.484Z,96033.13
2024-01-08T02:14:41.848Z,96043.88
2024-01-08T02:19:44.807Z,96039.91
2024-01-08T02:24:49.231Z,96038.00
2024-01-08T02:29:52.197Z,96038.00
2024-01-08T02:34:55.117Z,96037.22
2024-01-08T02:39:59.406Z,96026.41
2024-01-08T02:45:02.860Z,96035.56
2024-01-08T02:50:07.248Z,96033.38
2024-01-08T02:55:12.518Z,96027.25
2024-01-08T03:00:16.513Z,96032.63
2024-01-08T03:05:19.500Z,96036.69
2024-01-08T03:10:23.792Z,96034.53
2024-01-08T03:15:27.456Z,96038.31
2024-01-08T03:20:30.389Z,96037.72
2024-01-08T03:25:34.667Z,96040.69
2024-01-08T03:30:37.700Z,96043.09
2024-01-08T03:35:40.647Z,96045.53
2024-01-08T03:40:45.520Z,96045.53
2024-01-08T03:45:48.564Z,96045.03
2024-01-08T03:50:51.530Z,96060.38
2024-01-08T03:55:55.799Z,96058.75
2024-01-08T04:00:58.801Z,96052.50
2024-01-08T04:06:02.223Z,96066.56
2024-01-08T04:11:06.607Z,96060.50
2024-01-08T04:16:09.602Z,96070.81
2024-01-08T04:21:17.441Z,96072.50
2024-01-08T04:26:22.308Z,96065.53
2024-01-08T04:31:27.720Z,96064.69
2024-01-08T04:36:32.121Z,96074.09
2024-01-08T04:41:36.518Z,96070.06
2024-01-08T04:46:40.001Z,96072.22
2024-01-08T04:51:43.098Z,96070.06
2024-01-08T04:56:49.262Z,96073.31
2024-01-08T05:01:52.771Z,96074.97
2024-01-08T05:06:55.729Z,96085.53
2024-01-08T05:12:00.059Z,96094.44
2024-01-08T05:17:02.963Z,96091.44
2024-01-08T05:22:05.988Z,96095.19
2024-01-08T05:27:10.249Z,96087.69
2024-01-08T05:32:13.222Z,96102.50
2024-01-08T05:37:16.452Z,96106.28
2024-01-08T05:42:20.749Z,96113.34
2024-01-08T05:47:23.875Z,96113.34
2024-01-08T05:52:26.930Z,96129.25
2024-01-08T05:57:31.195Z,96128.16
2024-01-08T06:02:34.238Z,96120.06
2024-01-08T06:07:37.705Z,96125.78
2024-01-08T06:12:42.005Z,96134.69
2024-01-08T06:17:46.778Z,96131.16
2024-01-08T06:22:50.129Z,96138.75
2024-01-08T06:27:54.678Z,96137.91
2024-01-08T06:32:57.782Z,96142.25
2024-01-08T06:38:00.835Z,96154.63
2024-01-08T06:43:05.466Z,96148.16
2024-01-08T06:48:08.603Z,96155.19
2024-01-08T06:53:11.680Z,96149.31
2024-01-08T06:58:15.924Z,96159.50
2024-01-08T07:03:21.076Z,96166.25
2024-01-08T07:08:24.033Z,96167.09
2024-01-08T07:13:30.807Z,96172.97
2024-01-08T07:18:34.356Z,96174.59
2024-01-08T07:23:38.129Z,96176.78
2024-01-08T07:28:42.803Z,96177.31
2024-01-08T07:33:46.254Z,96185.16
2024-01-08T07:38:49.357Z,96190.78
2024-01-08T07:43:53.736Z,96197.25
2024-01-08T07:48:57.509Z,96202.41
2024-01-08T07:54:00.615Z,96202.41
2024-01-08T07:59:05.754Z,96218.31
2024-01-08T08:04:08.815Z,96214.53
2024-01-08T08:09:11.763Z,96219.97
2024-01-08T08:14:16.050Z,96219.97
2024-01-08T08:19:19.140Z,96230.19
2024-01-08T08:24:22.131Z,96240.97
2024-01-08T08:29:28.930Z,96252.06
2024-01-08T08:34:33.064Z,96255.31
2024-01-08T08:39:36.250Z,96261.47
2024-01-08T08:44:40.583Z,96257.75
2024-01-08T08:49:43.612Z,96267.19
2024-01-08T08:54:46.523Z,96268.00
2024-01-08T08:59:50.789Z,96272.31
2024-01-08T09:04:54.810Z,96276.66
2024-01-08T09:09:57.785Z,96278.28
2024-01-08T09:15:02.122Z,96293.91
2024-01-08T09:20:06.536Z,96297.47
2024-01-08T09:25:09.879Z,96306.94
2024-01-08T09:30:17.507Z,96303.94
2024-01-08T09:35:22.611Z,96309.63
2024-01-08T09:40:25.717Z,96305.06
2024-01-08T09:45:31.593Z,96310.72
2024-01-08T09:50:34.893Z,96323.69
2024-01-08T09:55:37.930Z,96320.44
2024-01-08T10:00:44.730Z,96330.75
2024-01-08T10:05:47.913Z,96332.91
2024-01-08T10:10:50.925Z,96328.06
2024-01-08T10:15:55.497Z,96328.06
2024-01-08T10:21:10.600Z,96329.94
2024-01-08T10:26:14.608Z,96327.81
2024-01-08T10:31:19.079Z,96330.25
2024-01-08T10:36:22.039Z,96331.59
2024-01-08T10:41:25.738Z,96335.66
2024-01-08T10:46:37.185Z,96330.56
2024-01-08T10:51:45.583Z,96330.03
2024-01-08T10:56:50.294Z,96329.47
2024-01-08T11:01:55.357Z,96329.78
2024-01-08T11:06:59.097Z,96332.75
2024-01-08T11:12:04.191Z,96321.22
2024-01-08T11:17:10.963Z,96326.34
2024-01-08T11:22:16.619Z,96326.63
2024-01-08T11:27:19.838Z,96328.50
2024-01-08T11:32:52.863Z,96333.66
2024-01-08T11:38:10.083Z,96330.69
2024-01-08T11:43:13.545Z,96329.13
2024-01-08T11:48:17.900Z,96335.88
2024-01-08T11:53:21.774Z,96339.38
2024-01-08T11:58:24.781Z,96335.88
2024-01-08T12:03:31.305Z,96327.50
2024-01-08T12:08:36.159Z,96334.53
2024-01-08T12:13:39.148Z,96340.44
2024-01-08T12:18:45.179Z,96337.22
2024-01-08T12:23:48.260Z,96339.66
2024-01-08T12:28:51.274Z,96339.09
2024-01-08T12:33:55.605Z,96345.88
2024-01-08T12:38:59.470Z,96348.56
2024-01-08T12:44:05.013Z,96350.72
2024-01-08T12:49:09.356Z,96359.31
2024-01-08T12:54:12.367Z,96367.69
2024-01-08T12:59:16.783Z,96375.44
2024-01-08T13:04:22.176Z,96362.06
2024-01-08T13:09:25.868Z,96358.03
2024-01-08T13:14:28.901Z,96371.91
2024-01-08T13:19:34.267Z,96365.81
2024-01-08T13:24:37.353Z,96369.34
2024-01-08T13:29:40.737Z,96381.78
2024-01-08T13:34:45.319Z,96370.75
2024-01-08T13:39:48.247Z,96388.91
2024-01-08T13:44:51.153Z,96385.41
2024-01-08T13:49:55.474Z,96384.31
2024-01-08T13:54:58.475Z,96389.47
2024-01-08T14:00:04.442Z,96401.59
2024-01-08T14:05:11.007Z,96405.44
2024-01-08T14:10:14.073Z,96403.28
2024-01-08T14:15:17.715Z,96418.41
2024-01-08T14:20:22.106Z,96414.41
2024-01-08T14:25:25.438Z,96425.50
2024-01-08T14:30:29.334Z,96421.19
2024-01-08T14:35:33.697Z,96426.88
2024-01-08T14:40:38.557Z,96429.06
2024-01-08T14:45:41.778Z,96434.38
2024-01-08T14:50:46.757Z,96427.28
2024-01-08T14:55:50.993Z,96443.69
2024-01-08T15:00:54.242Z,96441.44
2024-01-08T15:05:58.634Z,96452.78
2024-01-08T15:11:06.290Z,96459.31
2024-01-08T15:16:10.854Z,96469.84
2024-01-08T15:21:16.448Z,96465.03
2024-01-08T15:26:19.481Z,96479.59
2024-01-08T15:31:22.406Z,96482.00
2024-01-08T15:36:26.620Z,96488.75
2024-01-08T15:41:30.170Z,96489.28
2024-01-08T15:46:33.152Z,96498.72
2024-01-08T15:51:37.953Z,96502.25
2024-01-08T15:56:43.250Z,96499.78
2024-01-08T16:01:46.831Z,96508.97
2024-01-08T16:06:51.760Z,96517.06
2024-01-08T16:11:54.736Z,96523.75
2024-01-08T16:16:59.132Z,96524.53
2024-01-08T16:22:03.823Z,96523.00
2024-01-08T16:27:06.967Z,96523.53
2024-01-08T16:32:09.881Z,96529.94
2024-01-08T16:37:14.412Z,96535.34
2024-01-08T16:42:17.305Z,96540.22
2024-01-08T16:47:22.874Z,96543.69
2024-01-08T16:52:27.185Z,96549.31
2024-01-08T16:57:31.114Z,96556.03
2024-01-08T17:02:34.116Z,96561.69
2024-01-08T17:07:38.460Z,96583.31
2024-01-08T17:12:41.340Z,96576.50
2024-01-08T17:17:44.429Z,96578.09
2024-01-08T17:22:49.818Z,96576.19
2024-01-08T17:27:53.322Z,96577.00
2024-01-08T17:32:58.637Z,96577.75
2024-01-08T17:38:05.250Z,96590.97
2024-01-08T17:43:08.812Z,96587.19
2024-01-08T17:48:14.244Z,96590.16
2024-01-08T17:53:19.212Z,96591.22
2024-01-08T17:58:22.118Z,96595.81
2024-01-08T18:03:25.133Z,96598.75
2024-01-08T18:08:33.008Z,96592.50
2024-01-08T18:13:36.137Z,96595.41
2024-01-08T18:18:39.335Z,96599.41
2024-01-08T18:23:44.687Z,96602.59
2024-01-08T18:28:49.840Z,96609.53
2024-01-08T18:33:53.229Z,96610.28
2024-01-08T18:38:58.920Z,96607.31
2024-01-08T18:44:04.408Z,96615.06
2024-01-08T18:49:07.410Z,96609.56
2024-01-08T18:54:11.953Z,96619.81
2024-01-08T18:59:14.863Z,96624.84
2024-01-08T19:04:17.950Z,96622.28
2024-01-08T19:09:22.421Z,96618.19
2024-01-08T19:14:25.603Z,96627.84
2024-01-08T19:19:28.805Z,96623.91
2024-01-08T19:24:33.170Z,96629.28
2024-01-08T19:29:36.205Z,96633.50
2024-01-08T19:34:39.188Z,96635.59
2024-01-08T19:39:43.737Z,96632.31
2024-01-08T19:44:48.138Z,96637.91
2024-01-08T19:49:51.167Z,96641.88
2024-01-08T19:54:55.516Z,96637.53
2024-01-08T19:59:58.566Z,96639.72
2024-01-08T20:05:01.787Z,96642.19
2024-01-08T20:10:08.410Z,96644.88
2024-01-08T20:15:14.352Z,96650.44
2024-01-08T20:20:18.945Z,96652.59
2024-01-08T20:25:24.693Z,96651.44
2024-01-08T20:30:27.634Z,96654.06
2024-01-08T20:35:30.626Z,96645.38
2024-01-08T20:40:34.848Z,96660.78
2024-01-08T20:45:38.424Z,96654.06
2024-01-08T20:50:42.167Z,96655.72
2024-01-08T20:55:46.482Z,96657.03
2024-01-08T21:00:50.750Z,96657.78
2024-01-08T21:05:54.119Z,96669.06
2024-01-08T21:10:58.935Z,96661.97
2024-01-08T21:16:01.868Z,96662.72
2024-01-08T21:21:07.923Z,96660.53
2024-01-08T21:26:12.605Z,96656.84
2024-01-08T21:31:15.598Z,96656.59
2024-01-08T21:36:18.495Z,96656.00
2024-01-08T21:41:24.004Z,96661.59
2024-01-08T21:46:26.974Z,96662.66
2024-01-08T21:51:30.634Z,96669.59
2024-01-08T21:56:35.052Z,96680.06
2024-01-08T22:01:38.030Z,96671.16
2024-01-08T22:06:41.054Z,96668.28
2024-01-08T22:11:46.051Z,96680.69
2024-01-08T22:16:48.938Z,96676.06
2024-01-08T22:21:51.845Z,96675.22
2024-01-08T22:26:57.666Z,96672.47
2024-01-08T22:32:00.604Z,96681.53
2024-01-08T22:37:03.450Z,96678.75
2024-01-08T22:42:07.856Z,96681.78
2024-01-08T22:47:11.311Z,96684.56
2024-01-08T22:52:14.602Z,96683.84
2024-01-08T22:57:20.884Z,96676.75
2024-01-08T23:02:24.364Z,96675.34
2024-01-08T23:07:27.366Z,96680.16
2024-01-08T23:12:31.652Z,96678.75
2024-01-08T23:17:34.705Z,96676.72
2024-01-08T23:22:37.773Z,96678.09
2024-01-08T23:27:42.137Z,96684.63
2024-01-08T23:32:45.076Z,96686.59
2024-01-08T23:37:48.062Z,96680.38
2024-01-08T23:42:52.325Z,96675.47
2024-01-08T23:47:55.384Z,96681.34
2024-01-08T23:52:58.429Z,96679.16
2024-01-08T23:58:02.725Z,96675.31
